Time;durP1;ratioP1;P1;durP2;ratioP2;P2;SDS_P1;SDS_P2;PMS_P1;PMS_P2;Temp;Humidity;BMP_temperature;BMP_pressure;BME280_temperature;BME280_humidity;BME280_pressure;Samples;Min_cycle;Max_cycle;Signal;HPM_P1;HPM_P2
2023/11/28 00:00:09;;;;;;;3.67;1.35;;;5.20;99.90;;;;;;4979066;28;20546;-88
2023/11/28 00:02:35;;;;;;;9.68;1.40;;;5.30;99.90;;;;;;4976638;28;20066;-88
2023/11/28 00:05:01;;;;;;;6.90;1.88;;;5.20;99.90;;;;;;4979761;28;20076;-88
2023/11/28 00:07:26;;;;;;;4.20;1.15;;;5.30;99.90;;;;;;4980319;28;20034;-88
2023/11/28 00:09:52;;;;;;;1.80;1.17;;;5.30;99.90;;;;;;4997206;28;20109;-89
2023/11/28 00:12:19;;;;;;;3.80;0.70;;;5.20;99.90;;;;;;4980093;28;20033;-88
2023/11/28 00:14:44;;;;;;;1.60;0.60;;;5.20;99.90;;;;;;4981082;28;20030;-88
2023/11/28 00:17:10;;;;;;;2.80;0.73;;;5.20;99.90;;;;;;4978576;28;20177;-88
2023/11/28 00:19:36;;;;;;;4.65;0.60;;;5.20;99.90;;;;;;4978168;28;20085;-88
2023/11/28 00:22:01;;;;;;;2.22;0.60;;;5.20;99.90;;;;;;4978336;28;20026;-88
2023/11/28 00:24:27;;;;;;;3.17;1.13;;;5.10;99.90;;;;;;4978524;28;20025;-88
2023/11/28 00:26:53;;;;;;;2.40;1.27;;;5.10;99.90;;;;;;4978092;28;20737;-89
2023/11/28 00:29:18;;;;;;;8.32;1.42;;;5.10;99.90;;;;;;4978132;28;20053;-89
2023/11/28 00:31:44;;;;;;;4.95;1.45;;;5.10;99.90;;;;;;4974959;28;20026;-88
2023/11/28 00:34:09;;;;;;;4.00;1.45;;;5.10;99.90;;;;;;4977471;28;20030;-88
2023/11/28 00:36:35;;;;;;;4.22;1.48;;;5.10;99.90;;;;;;4976281;28;20030;-88
2023/11/28 00:39:03;;;;;;;10.07;1.90;;;5.10;99.90;;;;;;4977911;28;20479;-88
2023/11/28 00:41:29;;;;;;;9.85;2.47;;;5.10;99.90;;;;;;4978080;28;20053;-89
2023/11/28 00:43:55;;;;;;;4.57;1.88;;;5.10;99.90;;;;;;4977827;28;20475;-87
2023/11/28 00:46:22;;;;;;;7.63;2.28;;;5.10;99.90;;;;;;4977817;28;20057;-87
2023/11/28 00:48:48;;;;;;;8.48;2.85;;;5.10;99.90;;;;;;4977857;28;20123;-87
2023/11/28 00:51:14;;;;;;;14.15;3.15;;;5.10;99.90;;;;;;4977861;28;20014;-87
2023/11/28 00:53:41;;;;;;;7.82;2.90;;;5.10;99.90;;;;;;4977728;28;20102;-87
2023/11/28 00:56:08;;;;;;;9.77;2.95;;;5.10;99.90;;;;;;4977765;28;20014;-87
2023/11/28 00:58:35;;;;;;;9.73;3.05;;;5.10;99.90;;;;;;4977394;28;20050;-88
2023/11/28 01:01:00;;;;;;;10.68;3.00;;;5.10;99.90;;;;;;4978320;28;20022;-88
2023/11/28 01:03:26;;;;;;;10.05;2.70;;;5.10;99.90;;;;;;4978960;28;20027;-89
2023/11/28 01:05:52;;;;;;;10.13;2.88;;;5.10;99.90;;;;;;4978526;28;20115;-88
2023/11/28 01:08:18;;;;;;;9.30;3.20;;;5.10;99.90;;;;;;4977540;28;20121;-88
2023/11/28 01:10:43;;;;;;;6.80;2.50;;;5.10;99.90;;;;;;4978626;28;20038;-88
2023/11/28 01:13:09;;;;;;;8.98;3.55;;;5.10;99.90;;;;;;4978636;28;20111;-88
2023/11/28 01:15:34;;;;;;;9.48;2.70;;;5.10;99.90;;;;;;4978338;28;20029;-88
2023/11/28 01:18:00;;;;;;;5.72;2.13;;;5.10;99.90;;;;;;4978538;28;20160;-89
2023/11/28 01:20:26;;;;;;;10.48;2.70;;;5.10;99.90;;;;;;4978995;28;20026;-89
2023/11/28 01:22:52;;;;;;;8.40;2.78;;;5.10;99.90;;;;;;4995979;28;20562;-88
2023/11/28 01:25:18;;;;;;;6.45;1.85;;;5.10;99.90;;;;;;4978686;28;20059;-89
2023/11/28 01:27:43;;;;;;;8.27;2.00;;;5.10;99.90;;;;;;4978387;28;20030;-90
2023/11/28 01:30:12;;;;;;;10.90;2.33;;;5.10;99.90;;;;;;4978958;28;20045;-89
2023/11/28 01:32:37;;;;;;;9.20;2.70;;;5.10;99.90;;;;;;4976608;28;20057;-89
2023/11/28 01:35:04;;;;;;;8.85;2.15;;;5.10;99.90;;;;;;4979345;28;20026;-89
2023/11/28 01:37:29;;;;;;;12.52;2.67;;;5.10;99.90;;;;;;4978739;28;20036;-90
2023/11/28 01:39:58;;;;;;;8.88;2.60;;;5.10;99.90;;;;;;4978431;28;20407;-90
2023/11/28 01:42:23;;;;;;;8.38;2.75;;;5.10;99.90;;;;;;4977411;28;20030;-88
2023/11/28 01:44:49;;;;;;;11.57;2.40;;;5.10;99.90;;;;;;4976977;28;20022;-88
2023/11/28 01:47:15;;;;;;;18.75;3.65;;;5.10;99.90;;;;;;4977279;28;20468;-90
2023/11/28 01:49:41;;;;;;;7.88;3.20;;;5.10;99.90;;;;;;4976924;28;20037;-89
2023/11/28 01:52:10;;;;;;;15.60;3.83;;;5.10;99.90;;;;;;4977240;28;20033;-89
2023/11/28 01:54:35;;;;;;;9.65;2.17;;;5.10;99.90;;;;;;4977186;28;20023;-89
2023/11/28 01:57:02;;;;;;;12.75;2.30;;;5.10;99.90;;;;;;4976853;28;20033;-88
2023/11/28 01:59:31;;;;;;;13.50;3.05;;;5.10;99.90;;;;;;4976015;28;20082;-88
2023/11/28 02:01:57;;;;;;;16.65;3.92;;;5.00;99.90;;;;;;4976141;28;20121;-88
2023/11/28 02:04:23;;;;;;;12.35;2.75;;;5.00;99.90;;;;;;4976598;28;20498;-88
2023/11/28 02:06:49;;;;;;;12.07;2.78;;;5.00;99.90;;;;;;4976335;28;20488;-89
2023/11/28 02:09:15;;;;;;;8.02;2.30;;;5.00;99.90;;;;;;4993672;28;20029;-87
2023/11/28 02:11:41;;;;;;;8.18;2.72;;;5.00;99.90;;;;;;4976629;28;20045;-88
2023/11/28 02:14:07;;;;;;;7.32;3.10;;;5.00;99.90;;;;;;4994025;28;20190;-89
2023/11/28 02:16:33;;;;;;;8.90;2.40;;;5.00;99.90;;;;;;4976223;28;20061;-88
2023/11/28 02:18:58;;;;;;;9.43;2.65;;;5.00;99.90;;;;;;4976385;28;20054;-88
2023/11/28 02:21:24;;;;;;;12.02;2.20;;;5.00;99.90;;;;;;4976461;28;20044;-89
2023/11/28 02:23:50;;;;;;;11.95;2.67;;;5.00;99.90;;;;;;4976806;28;20125;-88
2023/11/28 02:26:23;;;;;;;9.57;2.28;;;5.00;99.90;;;;;;4976403;28;20077;-88
2023/11/28 02:28:49;;;;;;;16.63;3.70;;;5.00;99.90;;;;;;4974616;28;20027;-89
2023/11/28 02:31:15;;;;;;;8.77;2.53;;;5.00;99.90;;;;;;4977286;28;20018;-88
2023/11/28 02:33:40;;;;;;;4.38;2.00;;;5.00;99.90;;;;;;4976897;28;20030;-89
2023/11/28 02:36:07;;;;;;;7.53;2.30;;;5.00;99.90;;;;;;4977780;28;20025;-88
2023/11/28 02:38:32;;;;;;;7.40;2.50;;;5.00;99.90;;;;;;4977142;28;20035;-89
2023/11/28 02:40:58;;;;;;;9.52;4.07;;;5.00;99.90;;;;;;4976130;28;20080;-88
2023/11/28 02:43:24;;;;;;;10.85;2.60;;;5.00;99.90;;;;;;4976170;28;20031;-88
2023/11/28 02:45:49;;;;;;;13.57;3.33;;;5.00;99.90;;;;;;4976369;28;20061;-88
2023/11/28 02:48:15;;;;;;;11.60;3.35;;;5.00;99.90;;;;;;4975866;28;20550;-88
2023/11/28 02:50:41;;;;;;;7.68;2.17;;;5.00;99.90;;;;;;4975935;28;20518;-88
2023/11/28 02:53:08;;;;;;;11.02;2.50;;;5.00;99.90;;;;;;4975867;28;20084;-88
2023/11/28 02:55:33;;;;;;;8.93;3.50;;;4.90;99.90;;;;;;4992987;28;20498;-88
2023/11/28 02:57:59;;;;;;;8.27;2.00;;;4.90;99.90;;;;;;4975524;28;20823;-88
2023/11/28 03:00:25;;;;;;;6.68;2.35;;;4.90;99.90;;;;;;4973261;28;20054;-88
2023/11/28 03:02:51;;;;;;;5.53;2.53;;;4.90;99.90;;;;;;4975957;28;20523;-88
2023/11/28 03:05:17;;;;;;;7.53;1.95;;;4.90;99.90;;;;;;4976011;28;20053;-88
2023/11/28 03:07:42;;;;;;;12.02;3.25;;;4.90;99.90;;;;;;4975856;28;20542;-89
2023/11/28 03:10:08;;;;;;;7.57;2.28;;;4.90;99.90;;;;;;4976368;28;20022;-87
2023/11/28 03:12:34;;;;;;;13.20;2.75;;;4.80;99.90;;;;;;4976204;28;20113;-87
2023/11/28 03:15:00;;;;;;;5.22;1.92;;;4.80;99.90;;;;;;4976109;28;20031;-88
2023/11/28 03:17:26;;;;;;;6.53;2.30;;;4.80;99.90;;;;;;4975923;28;20045;-87
2023/11/28 03:19:52;;;;;;;6.53;2.13;;;4.80;99.90;;;;;;4977071;28;20022;-88
2023/11/28 03:22:17;;;;;;;11.10;2.25;;;4.80;99.90;;;;;;4977060;28;20027;-87
2023/11/28 03:24:44;;;;;;;8.68;2.17;;;4.70;99.90;;;;;;4976400;28;20476;-89
2023/11/28 03:27:11;;;;;;;9.73;2.50;;;4.70;99.90;;;;;;4976262;28;20038;-88
2023/11/28 03:29:37;;;;;;;10.57;1.85;;;4.70;99.90;;;;;;4977307;28;20027;-88
2023/11/28 03:32:03;;;;;;;9.30;2.05;;;4.70;99.90;;;;;;4980799;28;20058;-87
2023/11/28 03:34:29;;;;;;;10.30;1.95;;;4.70;99.90;;;;;;4981564;28;20023;-90
2023/11/28 03:36:54;;;;;;;7.30;2.10;;;4.70;99.90;;;;;;4997947;28;20097;-87
2023/11/28 03:39:20;;;;;;;9.73;2.05;;;4.60;99.90;;;;;;4980061;28;20023;-87
2023/11/28 03:41:50;;;;;;;3.47;1.75;;;4.70;99.90;;;;;;4979402;28;20035;-87
2023/11/28 03:44:15;;;;;;;9.85;2.00;;;4.60;99.90;;;;;;4979484;28;20019;-87
2023/11/28 03:46:41;;;;;;;6.70;1.70;;;4.70;99.90;;;;;;4978684;28;20160;-87
2023/11/28 03:49:07;;;;;;;6.68;1.92;;;4.70;99.90;;;;;;4996110;28;20026;-88
2023/11/28 03:51:35;;;;;;;8.63;1.58;;;4.70;99.90;;;;;;4978906;28;20023;-87
2023/11/28 03:54:01;;;;;;;5.50;1.45;;;4.80;99.90;;;;;;4996150;28;20628;-87
2023/11/28 03:56:26;;;;;;;7.70;1.95;;;4.90;99.90;;;;;;4978261;28;20022;-88
2023/11/28 03:58:52;;;;;;;4.07;1.45;;;4.90;99.90;;;;;;4978703;28;20463;-87
2023/11/28 04:01:18;;;;;;;7.10;1.30;;;5.00;99.90;;;;;;4996196;28;20388;-87
2023/11/28 04:03:44;;;;;;;8.80;1.42;;;5.00;99.90;;;;;;4996189;28;20026;-86
2023/11/28 04:06:09;;;;;;;10.85;1.60;;;5.00;99.90;;;;;;4978477;28;20393;-87
2023/11/28 04:08:35;;;;;;;12.00;2.78;;;5.00;99.90;;;;;;4978696;28;20026;-88
2023/11/28 04:11:01;;;;;;;10.90;2.38;;;5.00;99.90;;;;;;4978749;28;20032;-86
2023/11/28 04:13:27;;;;;;;9.82;1.98;;;5.00;99.90;;;;;;4978635;28;20477;-87
2023/11/28 04:15:53;;;;;;;7.50;2.38;;;5.00;99.90;;;;;;4979068;28;20027;-88
2023/11/28 04:18:18;;;;;;;10.43;1.55;;;4.90;99.90;;;;;;4978831;28;20096;-88
2023/11/28 04:20:44;;;;;;;6.78;1.75;;;4.90;99.90;;;;;;4978997;28;20391;-88
2023/11/28 04:23:10;;;;;;;6.38;1.90;;;4.80;99.90;;;;;;4978819;28;20089;-89
2023/11/28 04:25:36;;;;;;;4.90;1.63;;;4.80;99.90;;;;;;4979253;28;20034;-88
2023/11/28 04:28:01;;;;;;;8.48;1.92;;;4.70;99.90;;;;;;4980379;28;20117;-88
2023/11/28 04:30:27;;;;;;;13.18;1.90;;;4.70;99.90;;;;;;4997799;28;20030;-88
2023/11/28 04:32:53;;;;;;;7.88;1.60;;;4.70;99.90;;;;;;4979492;28;20022;-88
2023/11/28 04:35:19;;;;;;;13.80;1.80;;;4.70;99.90;;;;;;4979675;28;20081;-87
2023/11/28 04:37:45;;;;;;;7.57;1.80;;;4.60;99.90;;;;;;4978872;28;20046;-88
2023/11/28 04:40:11;;;;;;;10.23;2.22;;;4.60;99.90;;;;;;4978776;28;20526;-88
2023/11/28 04:42:38;;;;;;;8.07;1.85;;;4.60;99.90;;;;;;4978710;28;20029;-88
2023/11/28 04:45:04;;;;;;;6.55;1.80;;;4.60;99.90;;;;;;4978653;28;20018;-89
2023/11/28 04:47:30;;;;;;;7.20;1.33;;;4.60;99.90;;;;;;4978858;28;20075;-88
2023/11/28 04:49:55;;;;;;;6.15;1.67;;;4.50;99.90;;;;;;4978404;28;20388;-87
2023/11/28 04:52:21;;;;;;;6.63;2.47;;;4.50;99.90;;;;;;4978360;28;20484;-88
2023/11/28 04:54:46;;;;;;;6.65;3.00;;;4.50;99.90;;;;;;4977844;28;20452;-88
2023/11/28 04:57:12;;;;;;;11.15;3.40;;;4.40;99.90;;;;;;4977653;28;20080;-89
2023/11/28 04:59:38;;;;;;;10.60;2.88;;;4.40;99.90;;;;;;4976934;28;20046;-88
2023/11/28 05:02:03;;;;;;;10.13;3.70;;;4.30;99.90;;;;;;4976951;28;20026;-89
2023/11/28 05:04:29;;;;;;;9.38;3.00;;;4.30;99.90;;;;;;4994241;28;20042;-88
2023/11/28 05:06:55;;;;;;;13.93;2.65;;;4.30;99.90;;;;;;4977422;28;20034;-88
2023/11/28 05:09:21;;;;;;;4.40;2.45;;;4.30;99.90;;;;;;4977530;28;20037;-88
2023/11/28 05:11:47;;;;;;;9.35;2.70;;;4.20;99.90;;;;;;4976896;28;20037;-89
2023/11/28 05:14:13;;;;;;;8.95;2.22;;;4.20;99.90;;;;;;4977276;28;20049;-89
2023/11/28 05:16:39;;;;;;;7.80;2.28;;;4.20;99.90;;;;;;4975767;28;20085;-88
2023/11/28 05:19:05;;;;;;;7.78;2.60;;;4.20;99.90;;;;;;4977434;28;20022;-88
2023/11/28 05:21:31;;;;;;;6.82;2.00;;;4.20;99.90;;;;;;4977523;28;20022;-89
2023/11/28 05:23:57;;;;;;;10.40;2.50;;;4.10;99.90;;;;;;4977775;28;20022;-89
2023/11/28 05:26:23;;;;;;;7.88;2.22;;;4.10;99.90;;;;;;4978096;28;20026;-90
2023/11/28 05:28:49;;;;;;;8.70;4.00;;;4.10;99.90;;;;;;4977753;28;20106;-90
2023/11/28 05:31:14;;;;;;;8.70;2.13;;;4.10;99.90;;;;;;4977750;28;20027;-89
2023/11/28 05:33:40;;;;;;;6.85;1.80;;;4.00;99.90;;;;;;4977402;28;20041;-90
2023/11/28 05:36:07;;;;;;;5.43;1.40;;;4.00;99.90;;;;;;4977599;28;20492;-90
2023/11/28 05:38:33;;;;;;;6.63;2.17;;;3.90;99.90;;;;;;4977189;28;20030;-89
2023/11/28 05:40:59;;;;;;;6.80;2.55;;;3.90;99.90;;;;;;4977179;28;20053;-90
2023/11/28 05:43:30;;;;;;;9.50;2.20;;;3.90;99.90;;;;;;4977087;28;20030;-90
2023/11/28 05:45:55;;;;;;;10.45;2.40;;;3.80;99.90;;;;;;4975050;28;20025;-90
2023/11/28 05:48:22;;;;;;;8.85;1.85;;;3.80;99.90;;;;;;4977359;28;20022;-90
2023/11/28 05:50:47;;;;;;;8.10;2.05;;;3.70;99.90;;;;;;4977640;28;20030;-89
2023/11/28 05:53:14;;;;;;;10.27;2.88;;;3.70;99.90;;;;;;4979148;28;20033;-89
2023/11/28 05:55:40;;;;;;;5.50;1.65;;;3.70;99.90;;;;;;4977006;28;20495;-90
2023/11/28 05:58:05;;;;;;;5.20;1.77;;;3.70;99.90;;;;;;4976654;28;20042;-90
2023/11/28 06:00:34;;;;;;;10.57;5.07;;;3.60;99.90;;;;;;4977044;28;20076;-90
2023/11/28 06:03:00;;;;;;;7.13;2.30;;;3.60;99.90;;;;;;4976371;28;20073;-89
2023/11/28 06:05:26;;;;;;;4.00;1.98;;;3.50;99.90;;;;;;4976443;28;20014;-89
2023/11/28 06:07:52;;;;;;;5.88;1.63;;;3.50;99.90;;;;;;4976535;28;20023;-90
2023/11/28 06:10:18;;;;;;;5.18;2.28;;;3.50;99.90;;;;;;4976660;28;20490;-89
2023/11/28 06:12:44;;;;;;;8.02;2.10;;;3.50;99.90;;;;;;4976258;28;20030;-89
2023/11/28 06:15:10;;;;;;;6.20;1.67;;;3.40;99.90;;;;;;4976298;28;20053;-89
2023/11/28 06:17:35;;;;;;;5.18;1.52;;;3.40;99.90;;;;;;4976192;28;20034;-89
2023/11/28 06:20:04;;;;;;;4.90;2.10;;;3.30;99.90;;;;;;4976482;28;20316;-89
2023/11/28 06:22:31;;;;;;;3.05;1.63;;;3.30;99.90;;;;;;4976868;28;20028;-89
2023/11/28 06:24:56;;;;;;;4.95;2.28;;;3.20;99.90;;;;;;4976294;28;20028;-89
2023/11/28 06:27:22;;;;;;;4.18;1.58;;;3.20;99.90;;;;;;4976039;28;20022;-89
2023/11/28 06:29:48;;;;;;;5.72;2.00;;;3.20;99.90;;;;;;4976265;28;20069;-88
2023/11/28 06:32:14;;;;;;;3.78;1.60;;;3.10;99.90;;;;;;4976084;28;20480;-89
2023/11/28 06:34:39;;;;;;;4.95;1.80;;;3.00;99.90;;;;;;4993480;28;20122;-89
2023/11/28 06:37:05;;;;;;;3.65;1.40;;;3.00;99.90;;;;;;4976177;28;20121;-90
2023/11/28 06:39:33;;;;;;;5.85;1.75;;;2.90;99.90;;;;;;4975023;28;20049;-89
2023/11/28 06:42:00;;;;;;;4.60;1.73;;;3.00;99.90;;;;;;4975822;28;20026;-89
2023/11/28 06:44:28;;;;;;;4.95;1.40;;;2.90;99.90;;;;;;4975917;28;20065;-88
2023/11/28 06:46:55;;;;;;;6.05;1.95;;;2.90;99.90;;;;;;4990979;28;20030;-89
2023/11/28 06:49:21;;;;;;;4.30;1.38;;;2.90;99.90;;;;;;4976449;28;20030;-89
2023/11/28 06:51:46;;;;;;;4.80;1.58;;;2.90;99.90;;;;;;4976288;28;20121;-89
2023/11/28 06:54:13;;;;;;;6.07;1.30;;;2.80;99.90;;;;;;4977333;28;20037;-90
2023/11/28 06:56:39;;;;;;;4.32;1.30;;;2.80;99.90;;;;;;4978028;28;20045;-91
2023/11/28 06:59:05;;;;;;;6.28;2.25;;;2.80;99.90;;;;;;4980322;28;20070;-88
2023/11/28 07:01:33;;;;;;;7.55;1.40;;;2.70;99.90;;;;;;4997586;28;20033;-90
2023/11/28 07:03:59;;;;;;;6.72;2.42;;;2.70;99.90;;;;;;4977090;28;20376;-90
2023/11/28 07:06:28;;;;;;;6.22;1.38;;;2.70;99.90;;;;;;4976653;28;20018;-90
2023/11/28 07:08:54;;;;;;;5.13;1.73;;;2.60;99.90;;;;;;4996121;28;20027;-90
2023/11/28 07:11:20;;;;;;;8.55;1.20;;;2.60;99.90;;;;;;4976454;28;20022;-89
2023/11/28 07:13:49;;;;;;;3.53;1.63;;;2.60;99.90;;;;;;4976953;28;20042;-90
2023/11/28 07:16:15;;;;;;;4.65;1.20;;;2.60;99.90;;;;;;4975955;28;20102;-89
2023/11/28 07:18:42;;;;;;;4.60;1.40;;;2.60;99.90;;;;;;4978285;28;20510;-89
2023/11/28 07:21:08;;;;;;;3.78;1.13;;;2.60;99.90;;;;;;4976861;28;20117;-89
2023/11/28 07:23:34;;;;;;;3.65;1.67;;;2.50;99.90;;;;;;4978836;28;20022;-90
2023/11/28 07:26:00;;;;;;;7.38;2.58;;;2.60;99.90;;;;;;4979107;28;20445;-88
2023/11/28 07:28:26;;;;;;;10.55;1.38;;;2.60;99.90;;;;;;4979791;28;20480;-90
2023/11/28 07:30:52;;;;;;;6.55;1.45;;;2.60;99.90;;;;;;4973964;28;20049;-89
2023/11/28 07:33:18;;;;;;;8.18;1.55;;;2.70;99.90;;;;;;4973729;28;20033;-89
2023/11/28 07:35:44;;;;;;;7.78;1.60;;;2.70;99.90;;;;;;4988456;28;20026;-89
2023/11/28 07:38:10;;;;;;;7.50;1.60;;;2.70;99.90;;;;;;4986866;28;20201;-88
2023/11/28 07:43:58;;;;;;;4.57;1.48;;;2.80;99.90;;;;;;4987638;23;1977848;-90
2023/11/28 07:46:24;;;;;;;5.30;1.80;;;2.90;99.90;;;;;;4944416;29;20482;-89
2023/11/28 07:48:50;;;;;;;5.40;1.42;;;2.90;99.90;;;;;;4951462;29;20027;-89
2023/11/28 07:51:15;;;;;;;5.35;1.80;;;2.90;99.90;;;;;;4978133;28;20433;-89
2023/11/28 07:53:41;;;;;;;7.15;1.60;;;2.90;99.90;;;;;;4961058;28;20046;-90
2023/11/28 07:56:07;;;;;;;6.95;1.83;;;2.90;99.90;;;;;;4978220;28;20026;-90
2023/11/28 07:58:34;;;;;;;6.00;1.88;;;2.90;99.90;;;;;;4986735;28;20049;-90
2023/11/28 08:01:00;;;;;;;6.82;2.00;;;2.90;99.90;;;;;;4963957;28;20019;-90
2023/11/28 08:03:26;;;;;;;5.90;2.20;;;2.90;99.90;;;;;;4960797;28;20476;-89
2023/11/28 08:05:53;;;;;;;7.88;1.90;;;2.80;99.90;;;;;;4961015;28;20047;-89
2023/11/28 08:08:18;;;;;;;3.15;1.48;;;2.80;99.90;;;;;;4960541;28;20070;-89
2023/11/28 08:10:45;;;;;;;6.35;2.08;;;2.80;99.90;;;;;;4977626;28;20047;-87
2023/11/28 08:13:15;;;;;;;7.70;1.77;;;2.80;99.90;;;;;;4960020;28;20031;-88
2023/11/28 08:15:41;;;;;;;5.90;2.58;;;2.80;99.90;;;;;;4967958;28;20050;-89
2023/11/28 08:18:06;;;;;;;5.90;2.55;;;2.80;99.90;;;;;;4940501;28;20053;-88
2023/11/28 08:20:32;;;;;;;8.02;2.33;;;2.70;99.90;;;;;;4976744;28;20110;-88
2023/11/28 08:22:58;;;;;;;6.70;2.42;;;2.70;99.90;;;;;;4976609;28;20031;-90
2023/11/28 08:25:23;;;;;;;7.75;2.28;;;2.70;99.90;;;;;;4976568;28;20023;-90
2023/11/28 08:27:49;;;;;;;5.80;3.47;;;2.70;99.90;;;;;;4954837;28;20031;-90
2023/11/28 08:30:15;;;;;;;9.43;3.10;;;2.60;99.90;;;;;;4955851;28;20070;-90
2023/11/28 08:32:41;;;;;;;6.20;2.90;;;2.60;99.90;;;;;;4959957;28;20022;-91
2023/11/28 08:35:07;;;;;;;8.15;3.05;;;2.50;99.90;;;;;;4956465;29;20401;-89
2023/11/28 08:37:33;;;;;;;21.05;3.50;;;2.60;99.90;;;;;;4934561;29;20040;-90
2023/11/28 08:39:59;;;;;;;147.23;16.73;;;2.50;99.90;;;;;;4937028;29;20082;-90
2023/11/28 08:42:24;;;;;;;29.55;4.95;;;2.50;99.90;;;;;;4940388;29;20047;-90
2023/11/28 08:44:50;;;;;;;7.60;3.60;;;2.50;99.90;;;;;;4940507;29;20127;-90
2023/11/28 08:47:16;;;;;;;8.48;3.35;;;2.50;99.90;;;;;;4939417;29;20449;-90
2023/11/28 08:49:43;;;;;;;12.20;3.40;;;2.50;99.90;;;;;;4948645;29;20031;-90
2023/11/28 08:52:10;;;;;;;8.57;3.25;;;2.50;99.90;;;;;;4957134;29;20028;-91
2023/11/28 08:54:40;;;;;;;9.63;2.80;;;2.40;99.90;;;;;;4947090;29;20043;-91
2023/11/28 08:57:06;;;;;;;10.38;2.92;;;2.40;99.90;;;;;;4938119;29;20042;-90
2023/11/28 08:59:32;;;;;;;10.15;2.60;;;2.40;99.90;;;;;;4930401;29;20043;-93
2023/11/28 09:02:01;;;;;;;6.85;2.10;;;2.50;99.90;;;;;;4939944;29;20023;-90
2023/11/28 09:04:27;;;;;;;8.13;2.03;;;2.50;99.90;;;;;;4940155;29;20070;-91
2023/11/28 09:06:53;;;;;;;11.35;3.22;;;2.50;99.90;;;;;;4956205;29;20114;-90
2023/11/28 09:09:18;;;;;;;11.23;4.38;;;2.50;99.90;;;;;;4949703;29;20047;-91
2023/11/28 09:11:44;;;;;;;6.18;2.22;;;2.60;99.90;;;;;;4928989;29;20032;-90
2023/11/28 09:14:10;;;;;;;10.18;3.13;;;2.70;99.90;;;;;;4939858;29;20019;-90
2023/11/28 09:16:38;;;;;;;8.93;2.90;;;2.80;99.90;;;;;;4955691;29;20082;-91
2023/11/28 09:19:04;;;;;;;5.55;2.67;;;2.90;99.90;;;;;;4935114;29;20032;-89
2023/11/28 09:21:30;;;;;;;9.23;2.60;;;3.10;99.90;;;;;;4931588;29;20508;-89
2023/11/28 09:23:55;;;;;;;12.30;2.92;;;3.30;99.90;;;;;;4956667;29;20477;-89
2023/11/28 09:26:23;;;;;;;5.70;2.83;;;3.50;99.90;;;;;;4956865;29;20027;-89
2023/11/28 09:28:49;;;;;;;7.65;2.63;;;3.70;99.90;;;;;;4951831;28;20161;-89
2023/11/28 09:31:15;;;;;;;4.75;3.20;;;3.90;99.90;;;;;;4929324;29;20031;-89
2023/11/28 09:33:40;;;;;;;6.72;3.08;;;4.20;99.90;;;;;;4939519;29;20540;-89
2023/11/28 09:36:07;;;;;;;9.43;2.90;;;4.50;99.90;;;;;;4939047;29;20474;-89
2023/11/28 09:38:32;;;;;;;6.43;2.58;;;4.70;99.90;;;;;;4939222;29;20087;-88
2023/11/28 09:40:58;;;;;;;6.40;1.73;;;5.00;99.90;;;;;;4938380;29;20055;-89
2023/11/28 09:43:25;;;;;;;6.03;2.42;;;5.20;99.90;;;;;;4955794;28;20104;-89
2023/11/28 09:46:00;;;;;;;9.52;1.67;;;5.40;99.90;;;;;;4938739;29;20051;-89
2023/11/28 09:48:28;;;;;;;3.60;1.50;;;5.60;99.90;;;;;;4945027;29;20075;-89
2023/11/28 09:50:55;;;;;;;6.97;1.88;;;5.80;99.90;;;;;;4955449;29;20050;-89
2023/11/28 09:53:24;;;;;;;4.25;1.40;;;5.90;99.90;;;;;;4939068;29;20023;-89
2023/11/28 09:55:53;;;;;;;4.38;1.30;;;6.10;99.90;;;;;;4938599;29;20041;-89
2023/11/28 09:58:22;;;;;;;7.53;1.67;;;6.30;99.90;;;;;;4922761;29;20070;-89
2023/11/28 10:00:50;;;;;;;5.32;1.60;;;6.50;99.90;;;;;;4925903;29;20083;-90
2023/11/28 10:03:16;;;;;;;6.97;1.50;;;6.70;99.90;;;;;;4940126;29;20036;-91
2023/11/28 10:05:41;;;;;;;6.80;2.95;;;7.10;99.90;;;;;;4941611;29;20098;-91
2023/11/28 10:08:10;;;;;;;8.60;2.78;;;7.30;99.90;;;;;;4941076;29;20071;-89
2023/11/28 10:10:41;;;;;;;8.38;2.55;;;7.40;99.90;;;;;;4938928;29;20037;-90
2023/11/28 10:13:19;;;;;;;5.18;2.65;;;7.60;99.90;;;;;;4939200;29;20023;-89
2023/11/28 10:15:50;;;;;;;5.85;2.58;;;7.80;99.90;;;;;;4939027;29;20039;-89
2023/11/28 10:18:22;;;;;;;11.10;2.55;;;8.10;99.90;;;;;;4938901;29;20035;-89
2023/11/28 10:20:49;;;;;;;6.35;2.28;;;8.40;99.90;;;;;;4938858;29;20038;-90
2023/11/28 10:23:16;;;;;;;5.38;2.10;;;8.70;99.90;;;;;;4938444;29;20027;-88
2023/11/28 10:25:42;;;;;;;5.03;2.20;;;9.00;99.90;;;;;;4938450;29;20027;-91
2023/11/28 10:28:12;;;;;;;6.82;1.90;;;9.20;99.90;;;;;;4941036;29;20031;-90
2023/11/28 10:30:40;;;;;;;6.10;2.13;;;9.50;99.90;;;;;;4944271;29;20112;-88
2023/11/28 10:33:10;;;;;;;6.85;2.22;;;9.80;99.90;;;;;;4941310;29;20027;-90
2023/11/28 10:35:43;;;;;;;7.85;2.47;;;9.90;99.90;;;;;;4938315;29;20053;-90
2023/11/28 10:38:17;;;;;;;7.47;2.10;;;10.10;99.90;;;;;;4938422;29;20043;-88
2023/11/28 10:40:53;;;;;;;9.30;2.85;;;10.20;99.90;;;;;;4940617;29;20119;-89
2023/11/28 10:43:19;;;;;;;11.60;2.38;;;10.30;99.90;;;;;;4939855;29;20070;-88
2023/11/28 10:45:46;;;;;;;4.53;1.70;;;10.50;99.90;;;;;;4942653;29;20051;-89
2023/11/28 10:48:12;;;;;;;8.00;1.42;;;10.70;99.90;;;;;;4941940;29;20477;-90
2023/11/28 10:50:41;;;;;;;10.88;3.40;;;11.00;99.90;;;;;;4943256;29;20036;-90
2023/11/28 10:53:13;;;;;;;5.00;1.95;;;11.20;99.90;;;;;;4940573;29;20036;-89
2023/11/28 10:55:50;;;;;;;9.93;1.73;;;11.30;99.90;;;;;;4938289;29;20118;-90
2023/11/28 10:58:16;;;;;;;6.90;1.70;;;11.50;99.90;;;;;;4951040;29;20498;-92
2023/11/28 11:00:45;;;;;;;7.28;1.45;;;11.50;99.90;;;;;;4929223;29;20433;-90
2023/11/28 11:03:15;;;;;;;5.70;1.60;;;11.60;99.90;;;;;;4938755;29;20031;-88
2023/11/28 11:05:42;;;;;;;7.72;0.90;;;11.90;99.90;;;;;;4938589;29;20035;-89
2023/11/28 11:08:09;;;;;;;3.90;1.10;;;12.20;99.90;;;;;;4937829;29;20154;-90
2023/11/28 11:10:35;;;;;;;12.98;3.25;;;12.40;99.90;;;;;;4933974;29;20030;-90
2023/11/28 11:13:07;;;;;;;3.03;1.17;;;12.50;99.90;;;;;;4937775;29;20059;-90
2023/11/28 11:16:06;;;;;;;9.43;2.30;;;12.30;99.80;;;;;;4921692;29;20586;-90
2023/11/28 11:18:38;;;;;;;7.40;1.42;;;12.40;99.80;;;;;;4911454;29;20110;-90
2023/11/28 11:21:27;;;;;;;3.80;1.30;;;12.50;98.90;;;;;;4931382;29;20087;-90
2023/11/28 11:23:54;;;;;;;7.00;1.38;;;12.70;98.20;;;;;;4934878;29;20032;-90
2023/11/28 11:26:37;;;;;;;4.65;1.60;;;12.90;97.80;;;;;;4937369;29;20504;-90
2023/11/28 11:29:08;;;;;;;5.20;1.88;;;12.90;95.40;;;;;;4936910;29;20485;-90
2023/11/28 11:31:39;;;;;;;5.10;2.08;;;13.00;95.10;;;;;;4937480;29;20030;-90
2023/11/28 11:34:43;;;;;;;6.18;1.30;;;13.10;94.80;;;;;;4934669;29;20498;-90
2023/11/28 11:37:10;;;;;;;6.00;0.90;;;13.20;93.30;;;;;;4953566;29;20090;-91
2023/11/28 11:39:41;;;;;;;8.50;1.10;;;13.20;93.40;;;;;;4937853;29;20115;-90
2023/11/28 11:42:09;;;;;;;8.90;1.50;;;13.30;92.40;;;;;;4938041;28;20027;-90
2023/11/28 11:44:39;;;;;;;5.28;1.38;;;13.30;91.50;;;;;;4938509;29;20385;-90
2023/11/28 11:47:16;;;;;;;6.57;1.38;;;13.30;91.30;;;;;;4936487;29;20028;-90
2023/11/28 11:49:47;;;;;;;2.53;0.90;;;13.30;91.10;;;;;;4938802;29;20596;-90
2023/11/28 11:52:14;;;;;;;3.22;1.00;;;13.50;90.80;;;;;;4937539;29;20028;-88
2023/11/28 11:54:45;;;;;;;3.55;1.27;;;13.70;90.40;;;;;;4942323;29;20019;-90
2023/11/28 11:57:11;;;;;;;4.35;0.90;;;14.10;90.20;;;;;;4946097;29;20027;-90
2023/11/28 11:59:40;;;;;;;6.13;1.30;;;14.30;89.00;;;;;;4943377;29;20043;-91
2023/11/28 12:02:06;;;;;;;6.95;1.25;;;14.50;87.10;;;;;;4943107;29;20079;-90
2023/11/28 12:04:32;;;;;;;2.95;0.88;;;14.80;86.00;;;;;;4943438;29;20036;-91
2023/11/28 12:07:12;;;;;;;5.95;0.85;;;15.10;84.80;;;;;;4943020;29;20377;-89
2023/11/28 12:09:39;;;;;;;6.00;1.20;;;15.40;82.90;;;;;;4938022;29;20032;-91
2023/11/28 12:12:08;;;;;;;4.97;1.17;;;15.50;81.50;;;;;;4947418;29;20037;-89
2023/11/28 12:14:37;;;;;;;1.73;0.85;;;15.50;80.50;;;;;;4943647;29;20031;-90
2023/11/28 12:17:04;;;;;;;5.60;1.23;;;15.60;80.10;;;;;;4942521;29;20541;-90
2023/11/28 12:19:31;;;;;;;3.90;0.98;;;15.70;79.10;;;;;;4943825;29;20050;-90
2023/11/28 12:22:05;;;;;;;8.13;1.20;;;15.90;78.00;;;;;;4942279;29;20035;-91
2023/11/28 12:24:31;;;;;;;3.58;1.30;;;16.00;77.40;;;;;;4942679;29;20027;-92
2023/11/28 12:27:04;;;;;;;2.65;1.08;;;16.20;77.00;;;;;;4942226;29;20019;-93
2023/11/28 12:29:34;;;;;;;5.68;1.25;;;16.40;76.00;;;;;;4958114;29;20477;-91
2023/11/28 12:32:00;;;;;;;3.17;1.17;;;16.60;75.00;;;;;;4943094;29;20028;-91
2023/11/28 12:34:30;;;;;;;4.53;1.63;;;16.70;73.40;;;;;;4943204;29;20046;-91
2023/11/28 12:36:57;;;;;;;4.28;1.95;;;16.80;72.90;;;;;;4941159;29;20034;-90
2023/11/28 12:39:24;;;;;;;4.35;1.40;;;16.80;72.30;;;;;;4942753;29;20101;-90
2023/11/28 12:41:50;;;;;;;5.50;1.77;;;17.10;71.80;;;;;;4944589;29;20108;-91
2023/11/28 12:44:28;;;;;;;3.75;1.30;;;17.30;71.00;;;;;;4943199;29;20039;-90
2023/11/28 12:46:54;;;;;;;4.25;1.92;;;17.50;70.10;;;;;;4943570;29;20027;-90
2023/11/28 12:49:21;;;;;;;5.55;1.50;;;17.80;69.70;;;;;;4945062;29;20480;-90
2023/11/28 12:51:47;;;;;;;5.53;1.42;;;18.00;69.00;;;;;;4964069;29;20027;-90
2023/11/28 12:54:13;;;;;;;3.40;1.67;;;18.10;68.30;;;;;;4944275;29;20094;-91